N583VC KPCW-KLAF
Flight info
| Callsign | N583VC |
|---|---|
| Flight time | 1h 3m |
| Altitude | 18000 |
| Route | FORCE |
| Aircraft | B60T/L-SDFGRY/C |
Departure
| Time | 2026-04-28 01:38 |
|---|---|
| Airport | Erie-Ottawa International Airport (KPCW) |
Arrival
| Time | 2026-04-28 02:41 |
|---|---|
| Airport | Purdue University Airport (KLAF) |
| Time | Latitude | Longitude | Altitude | Speed | Heading |
|---|---|---|---|---|---|
| 2026-04-28 01:07 | 41.50943 | -82.86963 | 590 ft | 0 kts | 109° |
| 2026-04-28 01:29 | 41.50938 | -82.86942 | 590 ft | 7 kts | 104° |
| 2026-04-28 01:29 | 41.50928 | -82.86875 | 590 ft | 8 kts | 76° |
| 2026-04-28 01:29 | 41.51021 | -82.86848 | 590 ft | 21 kts | 0° |
| 2026-04-28 01:30 | 41.51181 | -82.86844 | 590 ft | 24 kts | 1° |
| 2026-04-28 01:30 | 41.51353 | -82.86837 | 590 ft | 26 kts | 1° |
| 2026-04-28 01:30 | 41.51544 | -82.86830 | 590 ft | 28 kts | 0° |
| 2026-04-28 01:30 | 41.51630 | -82.86771 | 590 ft | 14 kts | 83° |
| 2026-04-28 01:31 | 41.51645 | -82.86618 | 589 ft | 16 kts | 81° |
| 2026-04-28 01:31 | 41.51659 | -82.86471 | 590 ft | 16 kts | 82° |
| 2026-04-28 01:31 | 41.51674 | -82.86320 | 590 ft | 14 kts | 82° |
| 2026-04-28 01:31 | 41.51688 | -82.86174 | 590 ft | 15 kts | 82° |
| 2026-04-28 01:32 | 41.51728 | -82.86115 | 590 ft | 0 kts | 351° |
| 2026-04-28 01:36 | 41.51742 | -82.86118 | 591 ft | 8 kts | 350° |
| 2026-04-28 01:37 | 41.51797 | -82.86159 | 592 ft | 6 kts | 272° |
| 2026-04-28 01:37 | 41.51776 | -82.86325 | 590 ft | 36 kts | 265° |
| 2026-04-28 01:37 | 41.51739 | -82.86972 | 623 ft | 99 kts | 259° |
| 2026-04-28 01:37 | 41.51700 | -82.87985 | 980 ft | 114 kts | 265° |
| 2026-04-28 01:38 | 41.51879 | -82.89030 | 1498 ft | 121 kts | 273° |
| 2026-04-28 01:38 | 41.52192 | -82.90238 | 1883 ft | 151 kts | 275° |
| 2026-04-28 01:38 | 41.52554 | -82.91634 | 2489 ft | 165 kts | 274° |
| 2026-04-28 01:38 | 41.52952 | -82.93108 | 3161 ft | 171 kts | 275° |
| 2026-04-28 01:39 | 41.53355 | -82.94609 | 3858 ft | 172 kts | 275° |
| 2026-04-28 01:39 | 41.53743 | -82.96089 | 4589 ft | 170 kts | 275° |
| 2026-04-28 01:39 | 41.54131 | -82.97633 | 5003 ft | 189 kts | 275° |
| 2026-04-28 01:39 | 41.54537 | -82.99435 | 5017 ft | 214 kts | 275° |
| 2026-04-28 01:40 | 41.54956 | -83.01408 | 5019 ft | 227 kts | 275° |
| 2026-04-28 01:40 | 41.55382 | -83.03473 | 5020 ft | 233 kts | 275° |
| 2026-04-28 01:40 | 41.55810 | -83.05574 | 5023 ft | 235 kts | 275° |
| 2026-04-28 01:40 | 41.56238 | -83.07689 | 5029 ft | 236 kts | 275° |
| 2026-04-28 01:41 | 41.56664 | -83.09760 | 5362 ft | 220 kts | 275° |
| 2026-04-28 01:41 | 41.57063 | -83.11627 | 6048 ft | 201 kts | 275° |
| 2026-04-28 01:41 | 41.57157 | -83.13331 | 6609 ft | 175 kts | 245° |
| 2026-04-28 01:41 | 41.56565 | -83.14639 | 7140 ft | 162 kts | 227° |
| 2026-04-28 01:42 | 41.55886 | -83.15838 | 7693 ft | 161 kts | 229° |
| 2026-04-28 01:42 | 41.55195 | -83.17010 | 8247 ft | 160 kts | 229° |
| 2026-04-28 01:42 | 41.54692 | -83.18309 | 8942 ft | 155 kts | 246° |
| 2026-04-28 01:42 | 41.54346 | -83.19614 | 9776 ft | 142 kts | 244° |
| 2026-04-28 01:43 | 41.54007 | -83.20740 | 10664 ft | 120 kts | 244° |
| 2026-04-28 01:43 | 41.53708 | -83.21704 | 11380 ft | 107 kts | 245° |
| 2026-04-28 01:43 | 41.53422 | -83.22609 | 11874 ft | 110 kts | 245° |
| 2026-04-28 01:43 | 41.53116 | -83.23591 | 12283 ft | 118 kts | 247° |
| 2026-04-28 01:44 | 41.52797 | -83.24623 | 12778 ft | 122 kts | 248° |
| 2026-04-28 01:44 | 41.52469 | -83.25676 | 13238 ft | 128 kts | 248° |
| 2026-04-28 01:44 | 41.52119 | -83.26799 | 13720 ft | 133 kts | 249° |
| 2026-04-28 01:44 | 41.51759 | -83.27954 | 14187 ft | 136 kts | 249° |
| 2026-04-28 01:45 | 41.51395 | -83.29123 | 14666 ft | 137 kts | 249° |
| 2026-04-28 01:45 | 41.51026 | -83.30305 | 15159 ft | 138 kts | 249° |
| 2026-04-28 01:45 | 41.50657 | -83.31489 | 15648 ft | 138 kts | 249° |
| 2026-04-28 01:45 | 41.50288 | -83.32670 | 16157 ft | 138 kts | 249° |
| 2026-04-28 01:46 | 41.49920 | -83.33849 | 16663 ft | 137 kts | 249° |
| 2026-04-28 01:46 | 41.49554 | -83.35019 | 17174 ft | 136 kts | 249° |
| 2026-04-28 01:46 | 41.49194 | -83.36171 | 17656 ft | 137 kts | 249° |
| 2026-04-28 01:46 | 41.48802 | -83.37428 | 17868 ft | 156 kts | 249° |
| 2026-04-28 01:47 | 41.48352 | -83.38882 | 17887 ft | 181 kts | 249° |
| 2026-04-28 01:47 | 41.47848 | -83.40501 | 18026 ft | 195 kts | 249° |
| 2026-04-28 01:47 | 41.47300 | -83.42255 | 17967 ft | 213 kts | 249° |
| 2026-04-28 01:47 | 41.46717 | -83.44115 | 17961 ft | 222 kts | 249° |
| 2026-04-28 01:48 | 41.46110 | -83.46050 | 17935 ft | 229 kts | 249° |
| 2026-04-28 01:48 | 41.45489 | -83.48031 | 17932 ft | 234 kts | 249° |
| 2026-04-28 01:48 | 41.44862 | -83.50025 | 17930 ft | 238 kts | 249° |
| 2026-04-28 01:48 | 41.44218 | -83.52071 | 17932 ft | 240 kts | 249° |
| 2026-04-28 01:49 | 41.43571 | -83.54131 | 17938 ft | 242 kts | 247° |
| 2026-04-28 01:49 | 41.42927 | -83.56176 | 17927 ft | 234 kts | 247° |
| 2026-04-28 01:49 | 41.42301 | -83.58160 | 17918 ft | 230 kts | 247° |
| 2026-04-28 01:49 | 41.41685 | -83.60114 | 17910 ft | 227 kts | 247° |
| 2026-04-28 01:50 | 41.41083 | -83.62020 | 17882 ft | 225 kts | 247° |
| 2026-04-28 01:50 | 41.40479 | -83.63931 | 17885 ft | 223 kts | 247° |
| 2026-04-28 01:50 | 41.39880 | -83.65827 | 17882 ft | 222 kts | 247° |
| 2026-04-28 01:50 | 41.39278 | -83.67732 | 17884 ft | 223 kts | 247° |
| 2026-04-28 01:51 | 41.38674 | -83.69636 | 17884 ft | 223 kts | 248° |
| 2026-04-28 01:51 | 41.38070 | -83.71544 | 17886 ft | 224 kts | 248° |
| 2026-04-28 01:51 | 41.37465 | -83.73456 | 17884 ft | 224 kts | 248° |
| 2026-04-28 01:51 | 41.36863 | -83.75355 | 17884 ft | 226 kts | 248° |
| 2026-04-28 01:52 | 41.36250 | -83.77288 | 17873 ft | 227 kts | 248° |
| 2026-04-28 01:52 | 41.35632 | -83.79230 | 17872 ft | 228 kts | 248° |
| 2026-04-28 01:52 | 41.35014 | -83.81176 | 17871 ft | 228 kts | 248° |
| 2026-04-28 01:52 | 41.34394 | -83.83126 | 17869 ft | 229 kts | 248° |
| 2026-04-28 01:53 | 41.33780 | -83.85056 | 17868 ft | 229 kts | 248° |
| 2026-04-28 01:53 | 41.33157 | -83.87010 | 17865 ft | 229 kts | 248° |
| 2026-04-28 01:53 | 41.32534 | -83.88966 | 17864 ft | 230 kts | 248° |
| 2026-04-28 01:53 | 41.31909 | -83.90924 | 17862 ft | 230 kts | 248° |
| 2026-04-28 01:54 | 41.31285 | -83.92883 | 17849 ft | 229 kts | 245° |
| 2026-04-28 01:54 | 41.30662 | -83.94831 | 17848 ft | 228 kts | 245° |
| 2026-04-28 01:54 | 41.30043 | -83.96768 | 17846 ft | 227 kts | 245° |
| 2026-04-28 01:54 | 41.29425 | -83.98697 | 17844 ft | 226 kts | 245° |
| 2026-04-28 01:55 | 41.28814 | -84.00605 | 17843 ft | 226 kts | 245° |
| 2026-04-28 01:55 | 41.28196 | -84.02538 | 17842 ft | 225 kts | 245° |
| 2026-04-28 01:55 | 41.27584 | -84.04442 | 17842 ft | 225 kts | 245° |
| 2026-04-28 01:55 | 41.26977 | -84.06337 | 17836 ft | 224 kts | 245° |
| 2026-04-28 01:56 | 41.26361 | -84.08253 | 17831 ft | 224 kts | 245° |
| 2026-04-28 01:56 | 41.25749 | -84.10161 | 17830 ft | 224 kts | 245° |
| 2026-04-28 01:56 | 41.25137 | -84.12064 | 17830 ft | 224 kts | 245° |
| 2026-04-28 01:56 | 41.24524 | -84.13969 | 17830 ft | 224 kts | 245° |
| 2026-04-28 01:57 | 41.23912 | -84.15869 | 17832 ft | 224 kts | 245° |
| 2026-04-28 01:57 | 41.23299 | -84.17771 | 17832 ft | 223 kts | 245° |
| 2026-04-28 01:57 | 41.22691 | -84.19662 | 17831 ft | 222 kts | 245° |
| 2026-04-28 01:57 | 41.22081 | -84.21549 | 17832 ft | 222 kts | 245° |
| 2026-04-28 01:58 | 41.21471 | -84.23441 | 17830 ft | 224 kts | 245° |
| 2026-04-28 01:58 | 41.20863 | -84.25320 | 17833 ft | 225 kts | 245° |
| 2026-04-28 01:58 | 41.20244 | -84.27237 | 17842 ft | 226 kts | 245° |
| 2026-04-28 01:58 | 41.19623 | -84.29154 | 17867 ft | 226 kts | 244° |
| 2026-04-28 01:59 | 41.19004 | -84.31070 | 17849 ft | 225 kts | 244° |
| 2026-04-28 01:59 | 41.18389 | -84.32968 | 17851 ft | 224 kts | 244° |
| 2026-04-28 01:59 | 41.17775 | -84.34861 | 17851 ft | 223 kts | 244° |
| 2026-04-28 01:59 | 41.17165 | -84.36741 | 17843 ft | 222 kts | 244° |
| 2026-04-28 02:00 | 41.16560 | -84.38605 | 17838 ft | 221 kts | 244° |
| 2026-04-28 02:00 | 41.15953 | -84.40476 | 17836 ft | 221 kts | 244° |
| 2026-04-28 02:00 | 41.15343 | -84.42348 | 17835 ft | 221 kts | 244° |
| 2026-04-28 02:00 | 41.14736 | -84.44214 | 17834 ft | 220 kts | 244° |
| 2026-04-28 02:01 | 41.14129 | -84.46079 | 17837 ft | 220 kts | 244° |
| 2026-04-28 02:01 | 41.13522 | -84.47943 | 17837 ft | 220 kts | 244° |
| 2026-04-28 02:01 | 41.12914 | -84.49810 | 17842 ft | 220 kts | 244° |
| 2026-04-28 02:01 | 41.12304 | -84.51676 | 17833 ft | 220 kts | 244° |
| 2026-04-28 02:02 | 41.11697 | -84.53539 | 17846 ft | 220 kts | 244° |
| 2026-04-28 02:02 | 41.11097 | -84.55374 | 17845 ft | 220 kts | 244° |
| 2026-04-28 02:02 | 41.10488 | -84.57238 | 17837 ft | 220 kts | 244° |
| 2026-04-28 02:02 | 41.09879 | -84.59099 | 17837 ft | 220 kts | 244° |
| 2026-04-28 02:03 | 41.09271 | -84.60959 | 17840 ft | 220 kts | 243° |
| 2026-04-28 02:03 | 41.08663 | -84.62815 | 17840 ft | 220 kts | 244° |
| 2026-04-28 02:03 | 41.08054 | -84.64672 | 17841 ft | 220 kts | 243° |
| 2026-04-28 02:03 | 41.07445 | -84.66529 | 17841 ft | 220 kts | 244° |
| 2026-04-28 02:04 | 41.06836 | -84.68389 | 17838 ft | 219 kts | 243° |
| 2026-04-28 02:04 | 41.06230 | -84.70232 | 17836 ft | 218 kts | 243° |
| 2026-04-28 02:04 | 41.05627 | -84.72066 | 17836 ft | 217 kts | 243° |
| 2026-04-28 02:04 | 41.05026 | -84.73896 | 17840 ft | 216 kts | 243° |
| 2026-04-28 02:05 | 41.04434 | -84.75693 | 17839 ft | 215 kts | 243° |
| 2026-04-28 02:05 | 41.03835 | -84.77512 | 17837 ft | 215 kts | 243° |
| 2026-04-28 02:05 | 41.03237 | -84.79327 | 17837 ft | 215 kts | 243° |
| 2026-04-28 02:05 | 41.02640 | -84.81138 | 17837 ft | 215 kts | 243° |
| 2026-04-28 02:06 | 41.02043 | -84.82949 | 17821 ft | 214 kts | 243° |
| 2026-04-28 02:06 | 41.01444 | -84.84759 | 17810 ft | 214 kts | 243° |
| 2026-04-28 02:06 | 41.00847 | -84.86566 | 17809 ft | 214 kts | 243° |
| 2026-04-28 02:06 | 41.00251 | -84.88374 | 17806 ft | 214 kts | 243° |
| 2026-04-28 02:07 | 40.99654 | -84.90178 | 17808 ft | 214 kts | 243° |
| 2026-04-28 02:07 | 40.99057 | -84.91980 | 17809 ft | 214 kts | 243° |
| 2026-04-28 02:07 | 40.98469 | -84.93756 | 17811 ft | 214 kts | 243° |
| 2026-04-28 02:07 | 40.97872 | -84.95558 | 17812 ft | 214 kts | 243° |
| 2026-04-28 02:08 | 40.97273 | -84.97364 | 17813 ft | 214 kts | 243° |
| 2026-04-28 02:08 | 40.96675 | -84.99163 | 17816 ft | 214 kts | 243° |
| 2026-04-28 02:08 | 40.96078 | -85.00963 | 17817 ft | 214 kts | 243° |
| 2026-04-28 02:08 | 40.95479 | -85.02765 | 17819 ft | 213 kts | 243° |
| 2026-04-28 02:09 | 40.94882 | -85.04562 | 17821 ft | 214 kts | 243° |
| 2026-04-28 02:09 | 40.94285 | -85.06357 | 17838 ft | 212 kts | 242° |
| 2026-04-28 02:09 | 40.93690 | -85.08144 | 17839 ft | 212 kts | 242° |
| 2026-04-28 02:09 | 40.93105 | -85.09900 | 17839 ft | 211 kts | 242° |
| 2026-04-28 02:10 | 40.92513 | -85.11675 | 17838 ft | 211 kts | 242° |
| 2026-04-28 02:10 | 40.91922 | -85.13449 | 17838 ft | 211 kts | 242° |
| 2026-04-28 02:10 | 40.91331 | -85.15217 | 17837 ft | 210 kts | 242° |
| 2026-04-28 02:10 | 40.90740 | -85.16988 | 17837 ft | 210 kts | 242° |
| 2026-04-28 02:11 | 40.90149 | -85.18756 | 17840 ft | 210 kts | 242° |
| 2026-04-28 02:11 | 40.89559 | -85.20519 | 17840 ft | 210 kts | 242° |
| 2026-04-28 02:11 | 40.88967 | -85.22289 | 17840 ft | 210 kts | 242° |
| 2026-04-28 02:11 | 40.88376 | -85.24053 | 17837 ft | 210 kts | 243° |
| 2026-04-28 02:12 | 40.87784 | -85.25820 | 17833 ft | 210 kts | 242° |
| 2026-04-28 02:12 | 40.87192 | -85.27586 | 17830 ft | 210 kts | 242° |
| 2026-04-28 02:12 | 40.86598 | -85.29355 | 17827 ft | 210 kts | 242° |
| 2026-04-28 02:12 | 40.86013 | -85.31100 | 17823 ft | 210 kts | 242° |
| 2026-04-28 02:13 | 40.85419 | -85.32866 | 17871 ft | 210 kts | 242° |
| 2026-04-28 02:13 | 40.84826 | -85.34631 | 17874 ft | 210 kts | 242° |
| 2026-04-28 02:13 | 40.84232 | -85.36398 | 17873 ft | 210 kts | 242° |
| 2026-04-28 02:13 | 40.83639 | -85.38161 | 17874 ft | 210 kts | 242° |
| 2026-04-28 02:14 | 40.83044 | -85.39926 | 17878 ft | 210 kts | 242° |
| 2026-04-28 02:14 | 40.82450 | -85.41690 | 17878 ft | 211 kts | 242° |
| 2026-04-28 02:14 | 40.81852 | -85.43463 | 17874 ft | 211 kts | 243° |
| 2026-04-28 02:14 | 40.81255 | -85.45233 | 17873 ft | 211 kts | 244° |
| 2026-04-28 02:15 | 40.80069 | -85.48746 | 17869 ft | 211 kts | 244° |
| 2026-04-28 02:15 | 40.79469 | -85.50519 | 17870 ft | 211 kts | 244° |
| 2026-04-28 02:15 | 40.78872 | -85.52285 | 17869 ft | 211 kts | 244° |
| 2026-04-28 02:16 | 40.78273 | -85.54053 | 17868 ft | 211 kts | 244° |
| 2026-04-28 02:16 | 40.77675 | -85.55821 | 17773 ft | 211 kts | 244° |
| 2026-04-28 02:16 | 40.77076 | -85.57587 | 17773 ft | 211 kts | 244° |
| 2026-04-28 02:16 | 40.76476 | -85.59357 | 17773 ft | 211 kts | 244° |
| 2026-04-28 02:17 | 40.75877 | -85.61124 | 17778 ft | 211 kts | 243° |
| 2026-04-28 02:17 | 40.75298 | -85.62908 | 17781 ft | 212 kts | 248° |
| 2026-04-28 02:17 | 40.74841 | -85.64753 | 17784 ft | 212 kts | 248° |
| 2026-04-28 02:17 | 40.74372 | -85.66602 | 17784 ft | 212 kts | 248° |
| 2026-04-28 02:18 | 40.73902 | -85.68444 | 17783 ft | 212 kts | 248° |
| 2026-04-28 02:18 | 40.73433 | -85.70285 | 17782 ft | 212 kts | 248° |
| 2026-04-28 02:18 | 40.72964 | -85.72127 | 17781 ft | 212 kts | 248° |
| 2026-04-28 02:18 | 40.72500 | -85.73949 | 17779 ft | 212 kts | 248° |
| 2026-04-28 02:19 | 40.72030 | -85.75793 | 17781 ft | 212 kts | 248° |
| 2026-04-28 02:19 | 40.71561 | -85.77634 | 17781 ft | 212 kts | 248° |
| 2026-04-28 02:19 | 40.71091 | -85.79477 | 17781 ft | 212 kts | 248° |
| 2026-04-28 02:19 | 40.70621 | -85.81316 | 17892 ft | 212 kts | 248° |
| 2026-04-28 02:20 | 40.70150 | -85.83160 | 17902 ft | 212 kts | 248° |
| 2026-04-28 02:20 | 40.69679 | -85.84999 | 17909 ft | 212 kts | 248° |
| 2026-04-28 02:20 | 40.69208 | -85.86841 | 17914 ft | 212 kts | 248° |
| 2026-04-28 02:20 | 40.68742 | -85.88658 | 17776 ft | 212 kts | 248° |
| 2026-04-28 02:21 | 40.68271 | -85.90497 | 17777 ft | 212 kts | 248° |
| 2026-04-28 02:21 | 40.67800 | -85.92336 | 17779 ft | 211 kts | 248° |
| 2026-04-28 02:21 | 40.67331 | -85.94162 | 17779 ft | 209 kts | 248° |
| 2026-04-28 02:21 | 40.66866 | -85.95969 | 17778 ft | 207 kts | 248° |
| 2026-04-28 02:22 | 40.66181 | -85.97590 | 17776 ft | 203 kts | 225° |
| 2026-04-28 02:22 | 40.64938 | -85.98520 | 17549 ft | 210 kts | 206° |
| 2026-04-28 02:22 | 40.63541 | -85.99100 | 17187 ft | 210 kts | 203° |
| 2026-04-28 02:22 | 40.62154 | -85.99607 | 16833 ft | 209 kts | 202° |
| 2026-04-28 02:23 | 40.60760 | -86.00105 | 16482 ft | 207 kts | 202° |
| 2026-04-28 02:23 | 40.59374 | -86.00593 | 16135 ft | 205 kts | 202° |
| 2026-04-28 02:23 | 40.58000 | -86.01077 | 15795 ft | 204 kts | 202° |
| 2026-04-28 02:23 | 40.56635 | -86.01558 | 15461 ft | 202 kts | 202° |
| 2026-04-28 02:24 | 40.55279 | -86.02035 | 15133 ft | 201 kts | 202° |
| 2026-04-28 02:24 | 40.53933 | -86.02511 | 14810 ft | 200 kts | 202° |
| 2026-04-28 02:24 | 40.52629 | -86.03074 | 14488 ft | 193 kts | 214° |
| 2026-04-28 02:24 | 40.51600 | -86.04172 | 14182 ft | 189 kts | 224° |
| 2026-04-28 02:25 | 40.50517 | -86.05113 | 13883 ft | 191 kts | 211° |
| 2026-04-28 02:25 | 40.49308 | -86.05821 | 13586 ft | 190 kts | 208° |
| 2026-04-28 02:25 | 40.48091 | -86.06494 | 13249 ft | 189 kts | 208° |
| 2026-04-28 02:25 | 40.46880 | -86.07162 | 12925 ft | 188 kts | 208° |
| 2026-04-28 02:26 | 40.45677 | -86.07828 | 12597 ft | 187 kts | 208° |
| 2026-04-28 02:26 | 40.44485 | -86.08493 | 12383 ft | 185 kts | 208° |
| 2026-04-28 02:26 | 40.43301 | -86.09153 | 12078 ft | 184 kts | 208° |
| 2026-04-28 02:26 | 40.42127 | -86.09807 | 11771 ft | 183 kts | 208° |
| 2026-04-28 02:27 | 40.40958 | -86.10459 | 11465 ft | 182 kts | 208° |
| 2026-04-28 02:27 | 40.39817 | -86.11097 | 11168 ft | 179 kts | 208° |
| 2026-04-28 02:27 | 40.38679 | -86.11737 | 10875 ft | 177 kts | 208° |
| 2026-04-28 02:27 | 40.37560 | -86.12363 | 10546 ft | 173 kts | 208° |
| 2026-04-28 02:28 | 40.36445 | -86.12976 | 10057 ft | 175 kts | 208° |
| 2026-04-28 02:28 | 40.35332 | -86.13619 | 9561 ft | 175 kts | 208° |
| 2026-04-28 02:28 | 40.34226 | -86.14269 | 9034 ft | 174 kts | 208° |
| 2026-04-28 02:28 | 40.33250 | -86.15113 | 8515 ft | 165 kts | 229° |
| 2026-04-28 02:29 | 40.32807 | -86.16488 | 8021 ft | 164 kts | 245° |
| 2026-04-28 02:29 | 40.32661 | -86.17990 | 7544 ft | 169 kts | 257° |
| 2026-04-28 02:29 | 40.32480 | -86.19471 | 7067 ft | 164 kts | 248° |
| 2026-04-28 02:29 | 40.32284 | -86.20958 | 6611 ft | 167 kts | 255° |
| 2026-04-28 02:30 | 40.32319 | -86.22514 | 6167 ft | 176 kts | 266° |
| 2026-04-28 02:30 | 40.32688 | -86.24101 | 5710 ft | 187 kts | 278° |
| 2026-04-28 02:30 | 40.33196 | -86.25662 | 5264 ft | 190 kts | 279° |
| 2026-04-28 02:30 | 40.33708 | -86.27262 | 4840 ft | 185 kts | 270° |
| 2026-04-28 02:31 | 40.33678 | -86.28820 | 4404 ft | 166 kts | 244° |
| 2026-04-28 02:31 | 40.33464 | -86.30336 | 3972 ft | 173 kts | 251° |
| 2026-04-28 02:31 | 40.33495 | -86.31972 | 3521 ft | 185 kts | 263° |
| 2026-04-28 02:31 | 40.33704 | -86.33696 | 3081 ft | 198 kts | 266° |
| 2026-04-28 02:32 | 40.33951 | -86.35495 | 2854 ft | 197 kts | 269° |
| 2026-04-28 02:32 | 40.34185 | -86.37198 | 2974 ft | 184 kts | 266° |
| 2026-04-28 02:32 | 40.34385 | -86.38852 | 3001 ft | 188 kts | 266° |
| 2026-04-28 02:32 | 40.34600 | -86.40595 | 3007 ft | 198 kts | 267° |
| 2026-04-28 02:33 | 40.34826 | -86.42390 | 3034 ft | 204 kts | 269° |
| 2026-04-28 02:33 | 40.35088 | -86.44193 | 3037 ft | 197 kts | 263° |
| 2026-04-28 02:33 | 40.35214 | -86.45954 | 3029 ft | 201 kts | 275° |
| 2026-04-28 02:33 | 40.35733 | -86.47686 | 3005 ft | 204 kts | 277° |
| 2026-04-28 02:34 | 40.35872 | -86.49425 | 3055 ft | 186 kts | 255° |
| 2026-04-28 02:34 | 40.35842 | -86.51144 | 3040 ft | 189 kts | 258° |
| 2026-04-28 02:34 | 40.36116 | -86.52908 | 3062 ft | 202 kts | 269° |
| 2026-04-28 02:34 | 40.36207 | -86.54665 | 2974 ft | 188 kts | 256° |
| 2026-04-28 02:35 | 40.36448 | -86.56378 | 3040 ft | 199 kts | 282° |
| 2026-04-28 02:35 | 40.36949 | -86.58053 | 3042 ft | 194 kts | 278° |
| 2026-04-28 02:35 | 40.37230 | -86.59714 | 3044 ft | 181 kts | 266° |
| 2026-04-28 02:35 | 40.37342 | -86.61337 | 3040 ft | 178 kts | 266° |
| 2026-04-28 02:36 | 40.37397 | -86.62928 | 3031 ft | 175 kts | 267° |
| 2026-04-28 02:36 | 40.37606 | -86.64539 | 3032 ft | 180 kts | 271° |
| 2026-04-28 02:36 | 40.37815 | -86.66149 | 3017 ft | 181 kts | 271° |
| 2026-04-28 02:36 | 40.38038 | -86.67774 | 3015 ft | 181 kts | 271° |
| 2026-04-28 02:37 | 40.38215 | -86.69390 | 3002 ft | 183 kts | 267° |
| 2026-04-28 02:37 | 40.38464 | -86.71074 | 3014 ft | 191 kts | 270° |
| 2026-04-28 02:37 | 40.38602 | -86.72802 | 2945 ft | 191 kts | 269° |
| 2026-04-28 02:37 | 40.38802 | -86.74537 | 2969 ft | 194 kts | 275° |
| 2026-04-28 02:38 | 40.39079 | -86.76285 | 2953 ft | 195 kts | 270° |
| 2026-04-28 02:38 | 40.39324 | -86.78053 | 2840 ft | 200 kts | 273° |
| 2026-04-28 02:38 | 40.39573 | -86.79856 | 2589 ft | 195 kts | 271° |
| 2026-04-28 02:38 | 40.39763 | -86.81510 | 2350 ft | 179 kts | 269° |
| 2026-04-28 02:39 | 40.39938 | -86.83082 | 2122 ft | 172 kts | 271° |
| 2026-04-28 02:39 | 40.40241 | -86.84606 | 1877 ft | 170 kts | 272° |
| 2026-04-28 02:39 | 40.40434 | -86.86113 | 1680 ft | 170 kts | 276° |
| 2026-04-28 02:39 | 40.40550 | -86.87640 | 1442 ft | 162 kts | 267° |
| 2026-04-28 02:40 | 40.40644 | -86.89051 | 1254 ft | 151 kts | 271° |
| 2026-04-28 02:40 | 40.40715 | -86.89936 | 1055 ft | 145 kts | 279° |
| 2026-04-28 02:40 | 40.40933 | -86.91189 | 964 ft | 137 kts | 276° |
| 2026-04-28 02:40 | 40.41058 | -86.92386 | 698 ft | 125 kts | 280° |
| 2026-04-28 02:41 | 40.41187 | -86.93399 | 602 ft | 97 kts | 277° |
| 2026-04-28 02:41 | 40.41273 | -86.94096 | 599 ft | 53 kts | 280° |
| 2026-04-28 02:41 | 40.41381 | -86.94261 | 601 ft | 12 kts | 24° |
| 2026-04-28 02:41 | 40.41400 | -86.94206 | 601 ft | 16 kts | 100° |
| 2026-04-28 02:42 | 40.41374 | -86.93991 | 601 ft | 17 kts | 98° |
| 2026-04-28 02:42 | 40.41365 | -86.93916 | 601 ft | 16 kts | 99° |
| 2026-04-28 02:42 | 40.41338 | -86.93709 | 600 ft | 19 kts | 100° |
| 2026-04-28 02:42 | 40.41405 | -86.93613 | 600 ft | 12 kts | 73° |
| 2026-04-28 02:43 | 40.41394 | -86.93579 | 600 ft | 0 kts | 154° |